Timeline UpdatesTrip UpdatesNews PostsPvt PostsTravel TipsAdmin PostsConv PostsFollowed PostsChat RequestsBlog PostsPNR Posts

Disclaimer
Search
 
 
Mon Sep 22, 2014 13:42:24 ISTHomeTrainsΣChainsAtlasPNRForumGalleryNewsFAQTripsMembersLoginFeedback
No Recent News for this Train
Other Trains in the News **new
Latest...
12722 Slip is Pair of this Link service officialy known as "Link Dakshin Express".
Mon May 21, 2012 (01:50PM)
⇐ Return Journey: Train# 12862

12861/Visakhapatnam-H.Nizamuddin Link SF Express

Time-Table HAS CHANGED.
Sep 07 (5:25PM)
Change Departure Station:
Change Arrival Station:
Post a Train Travel TipPost a Train Travel Tip **new
Post a Comment/Question/Picture/VideoPost a Comment/Question/Picture/Video
Inaugural Run
Tue Oct 01, 1985
Pantry/Catering
✕ NO Pantry Car
✓ Catering Avbl
Loco/Rake Reversals
KZJ/Kazipet Junction (3); BZA/Vijayawada Junction (10);
RSA - Rake Sharing
Rake/Coach Composition
LOCO(LGD-WAP4)-SLR-S4-S5-S6-B1-A1-GS-GS-GS-GS-SLR (Loco Reversal at BZA); From KZJ to NZM, 12721 Dakshin Exp; LOCO(LGD-WAP7)-SLR-S4-S5-S6-A1-B1-SLRD-A2-B2-PC-S8-S9-S10-S11-S12-S13-S14-GS-GS-GS-GS-SLR
Loco
WAP4
News    PNR    Forum    Time-Table    Availability    Fare Chart    Map    Arr/Dep History    Trips    Gallery    ΣChains    X/O    Timeline    
Travel Time: 11h 34m    19 halts    Distance: 660 km    Avg Speed: 57 km/hr
Type: SuperFast
Zone: ECoR/East Coast
Departs @ 15:10 (Avg 2m late)
Platform# 5
SMTWTFS
Visakhapatnam Junction/VSKP 
Arrives @ 02:44 +1 night
Platform# 1
SMTWTFS
Ramagundam/RDM 

19 halts. 104 intermediate Stations between Visakhapatnam Junction and Ramagundam

Show ALL intermediate Stations  Show Old Time-Table

#CodeStation NameX/OArrivesAvgDepartsAvgHaltPFDay#KmSpeedElevZoneAddress
1VSKPVisakhapatnam Junction (8)»  -15:10+2510.03411mECoRVishakhapatnam 530001, Andhra Pradesh
2DVDDuvvada (4)X  15:39+115:40+31m1116.36846mECoRVishakhapatnam District, Andhra Pradesh
3AKPAnakapalle (3)X  15:54+915:55+101m2132.38930mSCRAnakapalle ph.no . 08924-221698, Andhra Pradesh
4TUNITuni (2)  16:38+1516:39+161m1196.17124mSCRTuni ph.no. 08854-252172, Andhra Pradesh
5ANVAnnavaram (3)X  16:53+1716:54+181m11112.78227mSCREast Godavari District, Andhra Pradesh
6SLOSamalkot Junction (3)X  17:21+2217:22+241m31149.65618mSCRSamalkot, Andhra Pradesh
7RJYRajahmundry (3)X  18:16+2118:18+262m11199.85823mSCRRajahmundry ph.no. 0883-2420541, Andhra Pradesh
8NDDNidadavolu Junction (3)X  18:41+3618:42+371m31221.97120mSCRNidadavolu jtn ph.no. 08813-210325, Andhra Pradesh
9TDDTadepalligudem (3)  18:59+3419:00+351m31241.98718mSCRTadepalligudem, Andhra Pradesh
10EEEluru (3)  19:33+4119:34+421m31289.73519mSCREluru Ph.no. 08812 226401., Andhra Pradesh
11BZAVijayawada Junction (10)X21:15+421:30+715m71349.16124mSCRVijayawada 520001, Andhra Pradesh
12MDRMadhira (2)  22:25+1922:26+191m21404.69061mSCRKhammam Dist., Telangana
13KMTKhammam (2)X  22:56+2122:58+212m21449.586118mSCRKhammam 507001, Telangana
14DKJDornakal Junction (3)X  23:14+2823:15+281m11472.567153mSCRWarangal District, Telangana
15MABDMahbubabad (2)  23:37+2323:38+231m21496.9149200mSCRWarangal Dist., Telangana
16KDMKesamudram (2)X  23:44+2623:45+261m21511.859223mSCRWarangal Dist., Telangana
17WLWarangal (3)X  00:31+900:33+92m22557.023271mSCRWarangal., Telangana
18KZJKazipet Junction (3)X↵¶01:00+501:30+030m22567.289292mSCRWarangal Dist., Telangana
19JMKTJamikunta (2)X  01:54-01:55-1m12602.891236mSCRKarimnagar Dist., Telangana
20PDPLPeddapalli Junction (2)O  02:21-02:22-1m12642.348228mSCRKarimnagar Dist., Telangana
21RDMRamagundam (3)•O  02:44-02:45-1m12659.859170mSCRKarimnagar Dist. Ph : 08728 - 255237, Telangana
22MCIManchiryal (3)X  02:59-03:00-1m12673.563159mSCRAdilabad Dist., Telangana
23BPABellampalli (3)X  03:19-03:20-1m12693.459205mSCRTel:.08735 223298, Telangana
24SKZRSirpur Kaghaznagar (3)X  03:59-04:00-1m12731.952181mSCRAdilabad Dist., Telangana
25BPQBalharshah Junction (5)X  05:20-05:30-10m--2801.643188mCRBallarpur. Ph : 07172 - 240341, Maharashtra
26CDChandrapur Maharashtra (3)  05:49-05:50-1m--2815.463194mCRChandrapur 442401, Maharashtra
27BUXBhandak (5)  06:13-06:14-1m--2839.763207mCRChandrapur, Maharashtra
28WRRWarora (2)X  06:35-06:36-1m--2861.878214mCRWarora, Maharashtra
29HGTHinganghat (3)  07:06-07:07-1m--2900.844228mCRHinganghat, Maharashtra
30SEGMSewagram Junction (5)  07:52-07:53-1m--2934.076279mCRWardha, Maharashtra
31SNISindi (2)  08:16-08:17-1m--2963.377258mCRWardha, Maharashtra
32AJNIAjni (3)  08:51-08:52-1m--21007.28310mCRNagpur 440003, Maharashtra
33NGPNagpur Junction (8)X  09:15-09:25-10m121010.270314mCRNagpur 440001, Maharashtra
34KATLKatol (2)  10:17-10:18-1m--21071.060 CRKatol, Maharashtra
35NRKRNarkher Junction (4)X  10:43-10:44-1m--21096.261411mCRNarkher, Maharashtra
36PARPandhurna (2)  11:02-11:03-1m--21114.560481mCRDistt: Chhindwara, Madhya Pradesh
37MTYMultai (2)X  11:44-11:45-1m--21155.365762mCRMultai, Madhya Pradesh
38AMLAAmla Junction (5)O  12:06-12:08-2m--21178.269733mCRAmla Distt. Betul, Madhya Pradesh
39BZUBetul (3)X  12:28-12:29-1m--21201.151644mCRBetul, Madhya Pradesh
40GDYAGhoradongri (3)X  13:11-13:12-1m--21237.045 CRBetul, Madhya Pradesh
41ETItarsi Junction (7)  14:45-14:55-10m--21307.357329mWCRItarsi 461111, Madhya Pradesh
42HBDHoshangabad (2)O  15:14-15:15-1m--21325.463308mWCRHoshangabad, Madhya Pradesh
43HBJBhopal HabibGanj (5)X  16:19-16:20-1m--21392.815496mWCRHabibGanj, Madhya Pradesh
44BPLBhopal Junction (6)X  16:45-16:50-5m221399.197497mWCRBhopal, Madhya Pradesh
45BHSVidisha (3)X  17:23-17:24-1m121452.679 WCRVidisha, Madhya Pradesh
46BAQGanj Basoda (4)XO  17:54-17:55-1m121491.974 WCRVidisha, Madhya Pradesh
47MABAMandi Bamora (3)X  18:24 18:18-18:25 18:19-1m121520.425413mWCRState Highway 14, Madhya Pradesh
48BINABina Junction (5)X  19:00-19:05-5m321537.771414mWCRJn Pt - KATNI/GUNA/ BPL/JHS, Madhya Pradesh
49LARLalitpur (3)X  19:58-19:59-1m321600.688373mNCRLalitpur, Uttar Pradesh
50BABBabina (3)X  20:43-20:44-1m221665.443285mNCRBabina, Uttar Pradesh
51JHSJhansi Junction (7)X  21:20-21:30-10m--21690.976259mNCRJhansi, Uttar Pradesh
52GWLGwalior Junction (4)  22:47-22:52-5m221788.689214mNCRGwalior, Madhya Pradesh
53MRAMorena (3)  23:18-23:19-1m221827.155176mNCRMorena, Madhya Pradesh
54AGCAgra Cantt. (6)X  00:49 00:45-00:50-1 5m231906.675174mNCRAgra, Uttar Pradesh
55MTJMathura Junction (10)X  01:37 01:33-01:38-1 5m231960.362179mNCRMathura, Uttar Pradesh
56BVHBallabgarh (5)  03:19-03:20-1m332065.440203mNRFaridabad, Haryana
57FDBFaridabad (4)  03:32-03:33-1m232073.439206mNRold Faridabad, Haryana
58NZMDelhi Hazrat Nizamuddin (7)  04:00 04:05--632094.2-209mNRNew Delhi 110013, Delhi NCT
Scroll to Top
Scroll to Bottom